Time;durP1;ratioP1;P1;durP2;ratioP2;P2;SDS_P1;SDS_P2;PMS_P1;PMS_P2;Temp;Humidity;BMP_temperature;BMP_pressure;BME280_temperature;BME280_humidity;BME280_pressure;Samples;Min_cycle;Max_cycle;Signal;HPM_P1;HPM_P2
2022/10/04 00:00:27;;;;;;;;;;;;;;;-145.50;100.00;65435.88;5008566;28;19933;-65
2022/10/04 00:02:58;;;;;;;;;;;;;;;-145.50;100.00;65435.88;5021010;28;19964;-66
2022/10/04 00:05:25;;;;;;;;;;;;;;;-145.50;100.00;65435.88;5012607;28;20381;-65
2022/10/04 00:07:54;;;;;;;;;;;;;;;-145.50;100.00;65435.88;5018995;28;20003;-66
2022/10/04 00:10:22;;;;;;;;;;;;;;;-145.50;100.00;65435.88;5023755;28;19921;-66
2022/10/04 00:12:51;;;;;;;;;;;;;;;-145.50;100.00;65435.88;5011289;28;19944;-67
2022/10/04 00:15:23;;;;;;;;;;;;;;;-145.50;100.00;65435.88;5016517;28;19960;-66
2022/10/04 00:18:01;;;;;;;;;;;;;;;-145.50;100.00;65435.88;5010702;28;20362;-66
2022/10/04 00:20:46;;;;;;;;;;;;;;;-145.50;100.00;65435.88;5006922;28;19925;-67
2022/10/04 00:23:21;;;;;;;;;;;;;;;-145.50;100.00;65435.88;5006377;28;19933;-66
2022/10/04 00:25:48;;;;;;;;;;;;;;;-145.50;100.00;65435.88;5032126;28;19979;-66
2022/10/04 00:28:25;;;;;;;;;;;;;;;-145.50;100.00;65435.88;5012985;28;19925;-66
2022/10/04 00:31:11;;;;;;;;;;;;;;;-145.50;100.00;65435.88;5014710;28;19951;-67
2022/10/04 00:33:38;;;;;;;;;;;;;;;-145.50;100.00;65435.88;5011205;28;20560;-66
2022/10/04 00:36:23;;;;;;;;;;;;;;;-145.50;100.00;65435.88;5016685;28;20526;-66
2022/10/04 00:39:07;;;;;;;;;;;;;;;-145.50;100.00;65435.88;5022979;28;20333;-66
2022/10/04 00:41:37;;;;;;;;;;;;;;;-145.50;100.00;65435.88;5002700;28;19925;-65
2022/10/04 00:44:05;;;;;;;;;;;;;;;-145.50;100.00;65435.88;5023520;28;20285;-66
2022/10/04 00:46:32;;;;;;;;;;;;;;;-145.50;100.00;65435.88;5020099;28;19929;-65
2022/10/04 00:49:01;;;;;;;;;;;;;;;-145.50;100.00;65435.88;5023392;28;19932;-66
2022/10/04 00:51:36;;;;;;;;;;;;;;;-145.50;100.00;65435.88;5027787;28;19929;-66
2022/10/04 00:54:06;;;;;;;;;;;;;;;-145.50;100.00;65435.88;5018253;28;19947;-66
2022/10/04 00:56:32;;;;;;;;;;;;;;;-145.50;100.00;65435.88;5018017;28;20014;-66
2022/10/04 00:59:19;;;;;;;;;;;;;;;-145.50;100.00;65435.88;5022479;28;19928;-66
2022/10/04 01:01:48;;;;;;;;;;;;;;;-145.50;100.00;65435.88;4982979;28;20366;-67
2022/10/04 01:04:50;;;;;;;;;;;;;;;-145.50;100.00;65435.88;5016255;28;19925;-67
2022/10/04 01:07:21;;;;;;;;;;;;;;;-145.50;100.00;65435.88;4966179;28;20112;-67
2022/10/04 01:09:51;;;;;;;;;;;;;;;-145.50;100.00;65435.88;4953374;28;19926;-68
2022/10/04 01:12:25;;;;;;;;;;;;;;;-145.50;100.00;65435.88;4964423;28;20342;-67
2022/10/04 01:14:58;;;;;;;;;;;;;;;-145.50;100.00;65435.88;4961090;28;20097;-66
2022/10/04 01:17:24;;;;;;;;;;;;;;;-145.50;100.00;65435.88;4966115;28;19968;-67
2022/10/04 01:19:52;;;;;;;;;;;;;;;-145.50;100.00;65435.88;4966840;28;19969;-67
2022/10/04 01:22:33;;;;;;;;;;;;;;;-145.50;100.00;65435.88;4954205;28;19929;-67
2022/10/04 01:24:59;;;;;;;;;;;;;;;-145.50;100.00;65435.88;4964019;28;20578;-67
2022/10/04 01:27:34;;;;;;;;;;;;;;;-145.50;100.00;65435.88;4960922;28;19933;-67
2022/10/04 01:30:03;;;;;;;;;;;;;;;-145.50;100.00;65435.88;4965595;28;19974;-67
2022/10/04 01:32:30;;;;;;;;;;;;;;;-145.50;100.00;65435.88;4960367;28;20450;-67
2022/10/04 01:34:57;;;;;;;;;;;;;;;-145.50;100.00;65435.88;4963905;28;19926;-66
2022/10/04 01:37:23;;;;;;;;;;;;;;;-145.50;100.00;65435.88;4960608;28;19926;-67
2022/10/04 01:39:49;;;;;;;;;;;;;;;-145.50;100.00;65435.88;4956928;28;20047;-67
2022/10/04 01:42:17;;;;;;;;;;;;;;;-145.50;100.00;65435.88;5013423;28;19925;-66
2022/10/04 01:44:56;;;;;;;;;;;;;;;-145.50;100.00;65435.88;5018133;28;19929;-66
2022/10/04 01:47:30;;;;;;;;;;;;;;;-145.50;100.00;65435.88;5024972;28;20072;-67
2022/10/04 01:49:58;;;;;;;;;;;;;;;-145.50;100.00;65435.88;5013649;28;20340;-67
2022/10/04 01:52:32;;;;;;;;;;;;;;;-145.50;100.00;65435.88;5023960;28;19991;-67
2022/10/04 01:55:08;;;;;;;;;;;;;;;-145.50;100.00;65435.88;5015387;28;19994;-67
2022/10/04 01:57:39;;;;;;;;;;;;;;;-145.50;100.00;65435.88;5016222;28;19971;-68
2022/10/04 02:00:11;;;;;;;;;;;;;;;-145.50;100.00;65435.88;5024608;28;19924;-67
2022/10/04 02:02:38;;;;;;;;;;;;;;;-145.50;100.00;65435.88;5011699;28;19925;-67
2022/10/04 02:05:05;;;;;;;;;;;;;;;-145.50;100.00;65435.88;5022182;28;20286;-66
2022/10/04 02:07:33;;;;;;;;;;;;;;;-145.50;100.00;65435.88;5025688;28;20290;-67
2022/10/04 02:10:01;;;;;;;;;;;;;;;-145.50;100.00;65435.88;5022993;28;19925;-66
2022/10/04 02:12:30;;;;;;;;;;;;;;;-145.50;100.00;65435.88;5016743;28;19928;-66
2022/10/04 02:14:58;;;;;;;;;;;;;;;-145.50;100.00;65435.88;5020928;28;19947;-66
2022/10/04 02:17:27;;;;;;;;;;;;;;;-145.50;100.00;65435.88;5020464;28;19928;-66
2022/10/04 02:19:53;;;;;;;;;;;;;;;-145.50;100.00;65435.88;5015097;28;19925;-67
2022/10/04 02:22:22;;;;;;;;;;;;;;;-145.50;100.00;65435.88;5024690;28;20022;-66
2022/10/04 02:24:48;;;;;;;;;;;;;;;-145.50;100.00;65435.88;5022896;28;19924;-66
2022/10/04 02:27:15;;;;;;;;;;;;;;;-145.50;100.00;65435.88;5024800;28;19999;-66
2022/10/04 02:29:41;;;;;;;;;;;;;;;-145.50;100.00;65435.88;5011562;28;19975;-67
2022/10/04 02:34:54;;;;;;;;;;;;;;;-145.50;100.00;65435.88;5025492;28;19955;-66
2022/10/04 02:37:22;;;;;;;;;;;;;;;-145.50;100.00;65435.88;5016921;28;20355;-68
2022/10/04 02:40:01;;;;;;;;;;;;;;;-145.50;100.00;65435.88;5020983;28;19979;-67
2022/10/04 02:42:39;;;;;;;;;;;;;;;-145.50;100.00;65435.88;5012805;28;19925;-67
2022/10/04 02:45:21;;;;;;;;;;;;;;;-145.50;100.00;65435.88;5013967;28;19978;-66
2022/10/04 02:47:59;;;;;;;;;;;;;;;-145.50;100.00;65435.88;5002810;28;20453;-67
2022/10/04 02:50:29;;;;;;;;;;;;;;;-145.50;100.00;65435.88;5023936;28;19925;-66
2022/10/04 02:53:00;;;;;;;;;;;;;;;-145.50;100.00;65435.88;5018794;28;20004;-66
2022/10/04 02:55:28;;;;;;;;;;;;;;;-145.50;100.00;65435.88;5023878;28;19972;-67
2022/10/04 02:57:56;;;;;;;;;;;;;;;-145.50;100.00;65435.88;5021419;28;19999;-66
2022/10/04 03:00:26;;;;;;;;;;;;;;;-145.50;100.00;65435.88;5013172;28;19964;-66
2022/10/04 03:03:11;;;;;;;;;;;;;;;-145.50;100.00;65435.88;5019784;28;19932;-66
2022/10/04 03:05:39;;;;;;;;;;;;;;;-145.50;100.00;65435.88;5010839;28;19925;-66
2022/10/04 03:08:05;;;;;;;;;;;;;;;-145.50;100.00;65435.88;5023251;28;19928;-66
2022/10/04 03:10:33;;;;;;;;;;;;;;;-145.50;100.00;65435.88;5012724;28;19987;-66
2022/10/04 03:13:00;;;;;;;;;;;;;;;-145.50;100.00;65435.88;5010411;28;20003;-66
2022/10/04 03:15:27;;;;;;;;;;;;;;;-145.50;100.00;65435.88;5007814;28;19924;-66
2022/10/04 03:17:53;;;;;;;;;;;;;;;-145.50;100.00;65435.88;5018904;28;19933;-66
2022/10/04 03:20:20;;;;;;;;;;;;;;;-145.50;100.00;65435.88;5014726;28;19979;-67
2022/10/04 03:22:49;;;;;;;;;;;;;;;-145.50;100.00;65435.88;5005096;28;19921;-66
2022/10/04 03:25:20;;;;;;;;;;;;;;;-145.50;100.00;65435.88;5007716;28;19925;-65
2022/10/04 03:27:46;;;;;;;;;;;;;;;-145.50;100.00;65435.88;5001099;28;19929;-66
2022/10/04 03:30:14;;;;;;;;;;;;;;;-145.50;100.00;65435.88;5018233;28;19995;-67
2022/10/04 03:32:40;;;;;;;;;;;;;;;-145.50;100.00;65435.88;5020135;28;19974;-66
2022/10/04 03:35:15;;;;;;;;;;;;;;;-145.50;100.00;65435.88;5022543;28;20594;-66
2022/10/04 03:37:42;;;;;;;;;;;;;;;-145.50;100.00;65435.88;5023853;28;20360;-66
2022/10/04 03:40:09;;;;;;;;;;;;;;;-145.50;100.00;65435.88;5004269;28;19928;-66
2022/10/04 03:42:36;;;;;;;;;;;;;;;-145.50;100.00;65435.88;5007552;28;19921;-67
2022/10/04 03:45:06;;;;;;;;;;;;;;;-145.50;100.00;65435.88;5018639;28;19929;-66
2022/10/04 03:47:34;;;;;;;;;;;;;;;-145.50;100.00;65435.88;5025621;28;20401;-66
2022/10/04 03:50:14;;;;;;;;;;;;;;;-145.50;100.00;65435.88;5019859;28;20369;-66
2022/10/04 03:52:45;;;;;;;;;;;;;;;-145.50;100.00;65435.88;5023727;28;19929;-66
2022/10/04 03:55:14;;;;;;;;;;;;;;;-145.50;100.00;65435.88;5008502;28;19948;-66
2022/10/04 03:57:41;;;;;;;;;;;;;;;-145.50;100.00;65435.88;5009196;28;20285;-66
2022/10/04 04:00:07;;;;;;;;;;;;;;;-145.50;100.00;65435.88;5024554;28;19924;-66
2022/10/04 04:02:42;;;;;;;;;;;;;;;-145.50;100.00;65435.88;5015515;28;19928;-66
2022/10/04 04:05:18;;;;;;;;;;;;;;;-145.50;100.00;65435.88;5025122;28;19925;-66
2022/10/04 04:07:46;;;;;;;;;;;;;;;-145.50;100.00;65435.88;5013061;28;19925;-66
2022/10/04 04:10:19;;;;;;;;;;;;;;;-145.50;100.00;65435.88;5016908;28;19924;-66
2022/10/04 04:13:09;;;;;;;;;;;;;;;-145.50;100.00;65435.88;5015031;28;19957;-67
2022/10/04 04:15:36;;;;;;;;;;;;;;;-145.50;100.00;65435.88;5016044;28;19921;-67
2022/10/04 04:18:04;;;;;;;;;;;;;;;-145.50;100.00;65435.88;5018883;28;19925;-66
2022/10/04 04:20:33;;;;;;;;;;;;;;;-145.50;100.00;65435.88;5015673;28;19929;-66
2022/10/04 04:22:59;;;;;;;;;;;;;;;-145.50;100.00;65435.88;5016225;28;20344;-66
2022/10/04 04:25:27;;;;;;;;;;;;;;;-145.50;100.00;65435.88;5006358;28;19991;-66
2022/10/04 04:28:13;;;;;;;;;;;;;;;-145.50;100.00;65435.88;5029453;28;19948;-65
2022/10/04 04:30:44;;;;;;;;;;;;;;;-145.50;100.00;65435.88;5008637;28;20570;-65
2022/10/04 04:33:14;;;;;;;;;;;;;;;-145.50;100.00;65435.88;5026791;28;19929;-66
2022/10/04 04:35:46;;;;;;;;;;;;;;;-145.50;100.00;65435.88;5007472;28;20301;-65
2022/10/04 04:38:20;;;;;;;;;;;;;;;-145.50;100.00;65435.88;5015784;28;19920;-65
2022/10/04 04:40:46;;;;;;;;;;;;;;;-145.50;100.00;65435.88;5016969;28;19937;-66
2022/10/04 04:43:17;;;;;;;;;;;;;;;-145.50;100.00;65435.88;5018873;28;19926;-67
2022/10/04 04:45:44;;;;;;;;;;;;;;;-145.50;100.00;65435.88;5022007;28;20283;-66
2022/10/04 04:48:13;;;;;;;;;;;;;;;-145.50;100.00;65435.88;5017059;28;19925;-66
2022/10/04 04:50:39;;;;;;;;;;;;;;;-145.50;100.00;65435.88;5023115;28;19935;-66
2022/10/04 04:53:11;;;;;;;;;;;;;;;-145.50;100.00;65435.88;5014955;28;19956;-67
2022/10/04 04:55:39;;;;;;;;;;;;;;;-145.50;100.00;65435.88;5027635;28;19924;-67
2022/10/04 04:58:31;;;;;;;;;;;;;;;-145.50;100.00;65435.88;5021173;28;20683;-66
2022/10/04 05:00:59;;;;;;;;;;;;;;;-145.50;100.00;65435.88;5019562;28;19921;-67
2022/10/04 05:03:28;;;;;;;;;;;;;;;-145.50;100.00;65435.88;5020052;28;19925;-65
2022/10/04 05:05:57;;;;;;;;;;;;;;;-145.50;100.00;65435.88;5011581;28;19991;-66
2022/10/04 05:08:26;;;;;;;;;;;;;;;-145.50;100.00;65435.88;5023438;28;19975;-66
2022/10/04 05:10:55;;;;;;;;;;;;;;;-145.50;100.00;65435.88;5013627;28;19968;-67
2022/10/04 05:13:25;;;;;;;;;;;;;;;-145.50;100.00;65435.88;5025600;28;20623;-65
2022/10/04 05:15:53;;;;;;;;;;;;;;;-145.50;100.00;65435.88;5019517;28;19929;-65
2022/10/04 05:18:37;;;;;;;;;;;;;;;-145.50;100.00;65435.88;5016599;28;19924;-66
2022/10/04 05:21:21;;;;;;;;;;;;;;;-145.50;100.00;65435.88;5009107;28;19925;-65
2022/10/04 05:23:48;;;;;;;;;;;;;;;-145.50;100.00;65435.88;5019250;28;19986;-66
2022/10/04 05:26:20;;;;;;;;;;;;;;;-145.50;100.00;65435.88;5020098;28;19937;-67
2022/10/04 05:28:47;;;;;;;;;;;;;;;-145.50;100.00;65435.88;5020309;28;19967;-66
2022/10/04 05:31:27;;;;;;;;;;;;;;;-145.50;100.00;65435.88;5023851;28;19921;-66
2022/10/04 05:33:56;;;;;;;;;;;;;;;-145.50;100.00;65435.88;5008018;28;19988;-66
2022/10/04 05:36:41;;;;;;;;;;;;;;;-145.50;100.00;65435.88;5020853;28;19929;-66
2022/10/04 05:39:27;;;;;;;;;;;;;;;-145.50;100.00;65435.88;5015004;28;19971;-66
2022/10/04 05:42:14;;;;;;;;;;;;;;;-145.50;100.00;65435.88;5015647;28;20393;-66
2022/10/04 05:44:50;;;;;;;;;;;;;;;-145.50;100.00;65435.88;5019485;28;19928;-65
2022/10/04 05:47:22;;;;;;;;;;;;;;;-145.50;100.00;65435.88;5024908;28;19924;-66
2022/10/04 05:49:50;;;;;;;;;;;;;;;-145.50;100.00;65435.88;5018148;28;19925;-66
2022/10/04 05:52:29;;;;;;;;;;;;;;;-145.50;100.00;65435.88;5030828;28;19987;-66
2022/10/04 05:55:10;;;;;;;;;;;;;;;-145.50;100.00;65435.88;5027010;28;19935;-66
2022/10/04 05:57:55;;;;;;;;;;;;;;;-145.50;100.00;65435.88;5017741;28;19925;-67
2022/10/04 06:00:34;;;;;;;;;;;;;;;-145.50;100.00;65435.88;5015328;28;19960;-66
2022/10/04 06:03:04;;;;;;;;;;;;;;;-145.50;100.00;65435.88;5013893;28;19925;-66
2022/10/04 06:05:39;;;;;;;;;;;;;;;-145.50;100.00;65435.88;5018866;28;19929;-67
2022/10/04 06:08:35;;;;;;;;;;;;;;;-145.50;100.00;65435.88;5018306;28;21138;-66
2022/10/04 06:11:21;;;;;;;;;;;;;;;-145.50;100.00;65435.88;4996932;28;19925;-67
2022/10/04 06:13:59;;;;;;;;;;;;;;;-145.50;100.00;65435.88;5018413;28;20491;-66
2022/10/04 06:16:25;;;;;;;;;;;;;;;-145.50;100.00;65435.88;5019326;28;19929;-66
2022/10/04 06:19:03;;;;;;;;;;;;;;;-145.50;100.00;65435.88;5018254;28;20410;-67
2022/10/04 06:21:50;;;;;;;;;;;;;;;-145.50;100.00;65435.88;5026837;28;20035;-65
2022/10/04 06:24:24;;;;;;;;;;;;;;;-145.50;100.00;65435.88;5012296;28;20415;-66
2022/10/04 06:26:59;;;;;;;;;;;;;;;-145.50;100.00;65435.88;5020683;28;19925;-67
2022/10/04 06:29:30;;;;;;;;;;;;;;;-145.50;100.00;65435.88;5018365;28;19933;-66
2022/10/04 06:31:59;;;;;;;;;;;;;;;-145.50;100.00;65435.88;5021085;28;19925;-66
2022/10/04 06:34:35;;;;;;;;;;;;;;;-145.50;100.00;65435.88;5021722;28;20052;-67
2022/10/04 06:37:09;;;;;;;;;;;;;;;-145.50;100.00;65435.88;5018033;28;19951;-67
2022/10/04 06:39:53;;;;;;;;;;;;;;;-145.50;100.00;65435.88;5018917;28;20337;-66
2022/10/04 06:42:32;;;;;;;;;;;;;;;-145.50;100.00;65435.88;5012590;28;19979;-66
2022/10/04 06:45:09;;;;;;;;;;;;;;;-145.50;100.00;65435.88;5021532;28;20006;-67
2022/10/04 06:47:54;;;;;;;;;;;;;;;-145.50;100.00;65435.88;5014099;28;19975;-65
2022/10/04 06:50:43;;;;;;;;;;;;;;;-145.50;100.00;65435.88;5015687;28;20393;-65
2022/10/04 06:53:31;;;;;;;;;;;;;;;-145.50;100.00;65435.88;5005878;28;19952;-66
2022/10/04 06:56:18;;;;;;;;;;;;;;;-145.50;100.00;65435.88;5016516;28;19929;-64
2022/10/04 06:59:03;;;;;;;;;;;;;;;-145.50;100.00;65435.88;5007616;28;20455;-67
2022/10/04 07:01:33;;;;;;;;;;;;;;;-145.50;100.00;65435.88;5019355;28;19975;-66
2022/10/04 07:04:12;;;;;;;;;;;;;;;-145.50;100.00;65435.88;5014872;28;19929;-66
2022/10/04 07:06:46;;;;;;;;;;;;;;;-145.50;100.00;65435.88;5018425;28;19984;-66
2022/10/04 07:09:19;;;;;;;;;;;;;;;-145.50;100.00;65435.88;5020063;28;19975;-66
2022/10/04 07:11:51;;;;;;;;;;;;;;;-145.50;100.00;65435.88;5012899;28;19925;-66
2022/10/04 07:14:21;;;;;;;;;;;;;;;-145.50;100.00;65435.88;5022540;28;20010;-66
2022/10/04 07:17:00;;;;;;;;;;;;;;;-145.50;100.00;65435.88;5016401;28;19971;-66
2022/10/04 07:19:27;;;;;;;;;;;;;;;-145.50;100.00;65435.88;5018294;28;19929;-66
2022/10/04 07:21:53;;;;;;;;;;;;;;;-145.50;100.00;65435.88;5011535;28;19965;-67
2022/10/04 07:24:24;;;;;;;;;;;;;;;-145.50;100.00;65435.88;5012249;28;19928;-67
2022/10/04 07:26:51;;;;;;;;;;;;;;;-145.50;100.00;65435.88;5009336;28;20339;-67
2022/10/04 07:29:21;;;;;;;;;;;;;;;-145.50;100.00;65435.88;5018691;28;19926;-67
2022/10/04 07:32:00;;;;;;;;;;;;;;;-145.50;100.00;65435.88;5021331;28;19925;-67
2022/10/04 07:34:29;;;;;;;;;;;;;;;-145.50;100.00;65435.88;5019066;28;20653;-67
2022/10/04 07:36:58;;;;;;;;;;;;;;;-145.50;100.00;65435.88;5019577;28;20373;-67
2022/10/04 07:39:39;;;;;;;;;;;;;;;-145.50;100.00;65435.88;5011575;28;19975;-67
2022/10/04 07:42:13;;;;;;;;;;;;;;;-145.50;100.00;65435.88;5033843;28;19932;-67
2022/10/04 07:44:41;;;;;;;;;;;;;;;-145.50;100.00;65435.88;5015981;28;19929;-67
2022/10/04 07:47:17;;;;;;;;;;;;;;;-145.50;100.00;65435.88;5021007;28;19921;-67
2022/10/04 07:49:43;;;;;;;;;;;;;;;-145.50;100.00;65435.88;5011605;28;19925;-67
2022/10/04 07:52:28;;;;;;;;;;;;;;;-145.50;100.00;65435.88;5006614;28;19925;-67
2022/10/04 07:54:59;;;;;;;;;;;;;;;-145.50;100.00;65435.88;5013634;28;19929;-67
2022/10/04 07:57:26;;;;;;;;;;;;;;;-145.50;100.00;65435.88;5017090;28;20692;-67
2022/10/04 07:59:59;;;;;;;;;;;;;;;-145.50;100.00;65435.88;5022936;28;20547;-67
2022/10/04 08:02:33;;;;;;;;;;;;;;;-145.50;100.00;65435.88;5006625;28;20064;-67
2022/10/04 08:05:16;;;;;;;;;;;;;;;-145.50;100.00;65435.88;5014083;28;19925;-67
2022/10/04 08:08:00;;;;;;;;;;;;;;;-145.50;100.00;65435.88;5006156;28;19925;-67
2022/10/04 08:10:27;;;;;;;;;;;;;;;-145.50;100.00;65435.88;5021135;28;19921;-67
2022/10/04 08:13:03;;;;;;;;;;;;;;;-145.50;100.00;65435.88;5018666;28;19928;-67
2022/10/04 08:15:32;;;;;;;;;;;;;;;-145.50;100.00;65435.88;5015028;28;19925;-67
2022/10/04 08:18:01;;;;;;;;;;;;;;;-145.50;100.00;65435.88;5017045;28;19925;-66
2022/10/04 08:20:37;;;;;;;;;;;;;;;-145.50;100.00;65435.88;5017586;28;19926;-66
2022/10/04 08:23:26;;;;;;;;;;;;;;;-145.50;100.00;65435.88;5021823;28;19972;-67
2022/10/04 08:26:06;;;;;;;;;;;;;;;-145.50;100.00;65435.88;5011341;28;19926;-67
2022/10/04 08:31:50;;;;;;;;;;;;;;;-145.50;100.00;65435.88;5007758;28;20001;-66
2022/10/04 08:34:30;;;;;;;;;;;;;;;-145.50;100.00;65435.88;5009453;28;19983;-66
2022/10/04 08:37:08;;;;;;;;;;;;;;;-145.50;100.00;65435.88;5006261;28;19925;-66
2022/10/04 08:39:43;;;;;;;;;;;;;;;-145.50;100.00;65435.88;5020593;28;19929;-66
2022/10/04 08:42:15;;;;;;;;;;;;;;;-145.50;100.00;65435.88;5018723;28;19925;-66
2022/10/04 08:45:10;;;;;;;;;;;;;;;-145.50;100.00;65435.88;5019162;28;19972;-66
2022/10/04 08:47:56;;;;;;;;;;;;;;;-145.50;100.00;65435.88;5008656;28;19931;-67
2022/10/04 08:50:22;;;;;;;;;;;;;;;-145.50;100.00;65435.88;5012439;28;19928;-66
2022/10/04 08:53:19;;;;;;;;;;;;;;;-145.50;100.00;65435.88;5007645;28;19929;-67
2022/10/04 08:55:54;;;;;;;;;;;;;;;-145.50;100.00;65435.88;5010911;28;19926;-67
2022/10/04 08:58:26;;;;;;;;;;;;;;;-145.50;100.00;65435.88;5014502;28;19926;-67
2022/10/04 09:00:52;;;;;;;;;;;;;;;-145.50;100.00;65435.88;5013011;28;19925;-67
2022/10/04 09:03:37;;;;;;;;;;;;;;;-145.50;100.00;65435.88;5019749;28;19924;-67
2022/10/04 09:06:03;;;;;;;;;;;;;;;-145.50;100.00;65435.88;5018893;28;19995;-67
2022/10/04 09:08:33;;;;;;;;;;;;;;;-145.50;100.00;65435.88;5028436;28;20006;-67
2022/10/04 09:11:04;;;;;;;;;;;;;;;-145.50;100.00;65435.88;5020377;28;19925;-67
2022/10/04 09:13:42;;;;;;;;;;;;;;;-145.50;100.00;65435.88;5027245;28;19925;-67
2022/10/04 09:16:16;;;;;;;;;;;;;;;-145.50;100.00;65435.88;5019279;28;19974;-67
2022/10/04 09:18:43;;;;;;;;;;;;;;;-145.50;100.00;65435.88;5022460;28;19921;-67
2022/10/04 09:21:12;;;;;;;;;;;;;;;-145.50;100.00;65435.88;5022789;28;19929;-67
2022/10/04 09:23:58;;;;;;;;;;;;;;;-145.50;100.00;65435.88;5020715;28;20293;-67
2022/10/04 09:26:24;;;;;;;;;;;;;;;-145.50;100.00;65435.88;5022774;28;19925;-66
2022/10/04 09:29:09;;;;;;;;;;;;;;;-145.50;100.00;65435.88;5011837;28;20328;-67
2022/10/04 09:31:54;;;;;;;;;;;;;;;-145.50;100.00;65435.88;5012211;28;19926;-67
2022/10/04 09:34:37;;;;;;;;;;;;;;;-145.50;100.00;65435.88;5007645;28;19979;-67
2022/10/04 09:37:16;;;;;;;;;;;;;;;-145.50;100.00;65435.88;5024253;28;19964;-67
2022/10/04 09:39:52;;;;;;;;;;;;;;;-145.50;100.00;65435.88;5019377;28;19975;-67
2022/10/04 09:42:27;;;;;;;;;;;;;;;-145.50;100.00;65435.88;5016147;28;19970;-67
2022/10/04 09:45:13;;;;;;;;;;;;;;;-145.50;100.00;65435.88;5009301;28;19928;-67
2022/10/04 09:48:00;;;;;;;;;;;;;;;-145.50;100.00;65435.88;5020472;28;19979;-66
2022/10/04 09:50:45;;;;;;;;;;;;;;;-145.50;100.00;65435.88;5014873;28;19968;-67
2022/10/04 09:53:30;;;;;;;;;;;;;;;-145.50;100.00;65435.88;5023788;28;19925;-66
2022/10/04 09:55:57;;;;;;;;;;;;;;;-145.50;100.00;65435.88;5010320;28;20317;-67
2022/10/04 09:58:28;;;;;;;;;;;;;;;-145.50;100.00;65435.88;5021984;28;20376;-67
2022/10/04 10:01:21;;;;;;;;;;;;;;;-145.50;100.00;65435.88;5019598;28;19932;-67
2022/10/04 10:04:11;;;;;;;;;;;;;;;-145.50;100.00;65435.88;5018441;28;19925;-67
2022/10/04 10:06:44;;;;;;;;;;;;;;;-145.50;100.00;65435.88;5024679;28;19924;-67
2022/10/04 10:09:17;;;;;;;;;;;;;;;-145.50;100.00;65435.88;5014674;28;20404;-67
2022/10/04 10:14:55;;;;;;;;;;;;;;;-145.50;100.00;65435.88;5012675;28;20411;-67
2022/10/04 10:17:36;;;;;;;;;;;;;;;-145.50;100.00;65435.88;5022708;28;19925;-67
2022/10/04 10:20:22;;;;;;;;;;;;;;;-145.50;100.00;65435.88;5010634;28;19925;-67
2022/10/04 10:23:06;;;;;;;;;;;;;;;-145.50;100.00;65435.88;5023790;28;20008;-67
2022/10/04 10:25:43;;;;;;;;;;;;;;;-145.50;100.00;65435.88;5006603;28;20015;-67
2022/10/04 10:28:24;;;;;;;;;;;;;;;-145.50;100.00;65435.88;5007454;28;19925;-67
2022/10/04 10:30:53;;;;;;;;;;;;;;;-145.50;100.00;65435.88;5012715;28;20443;-67
2022/10/04 10:33:39;;;;;;;;;;;;;;;-145.50;100.00;65435.88;5026140;28;19925;-67
2022/10/04 10:36:15;;;;;;;;;;;;;;;-145.50;100.00;65435.88;5010817;28;19971;-67
2022/10/04 10:39:00;;;;;;;;;;;;;;;-145.50;100.00;65435.88;5015526;28;19925;-67
2022/10/04 10:41:46;;;;;;;;;;;;;;;-145.50;100.00;65435.88;5000596;28;19948;-67
2022/10/04 10:44:25;;;;;;;;;;;;;;;-145.50;100.00;65435.88;5024321;28;19976;-67
2022/10/04 10:47:02;;;;;;;;;;;;;;;-145.50;100.00;65435.88;5018200;28;20190;-67
2022/10/04 10:49:47;;;;;;;;;;;;;;;-145.50;100.00;65435.88;5022960;28;19970;-68
2022/10/04 10:52:28;;;;;;;;;;;;;;;-145.50;100.00;65435.88;5016681;28;20006;-67
2022/10/04 10:54:54;;;;;;;;;;;;;;;-145.50;100.00;65435.88;5020457;28;19921;-66
2022/10/04 10:57:26;;;;;;;;;;;;;;;-145.50;100.00;65435.88;5020326;28;19980;-67
2022/10/04 11:00:11;;;;;;;;;;;;;;;-145.50;100.00;65435.88;5016433;28;19925;-67
2022/10/04 11:02:47;;;;;;;;;;;;;;;-145.50;100.00;65435.88;5022158;28;19930;-67
2022/10/04 11:05:15;;;;;;;;;;;;;;;-145.50;100.00;65435.88;5006639;28;20404;-69
2022/10/04 11:07:50;;;;;;;;;;;;;;;-145.50;100.00;65435.88;5017668;28;19928;-67
2022/10/04 11:10:22;;;;;;;;;;;;;;;-145.50;100.00;65435.88;5003272;28;19925;-67
2022/10/04 11:13:17;;;;;;;;;;;;;;;-145.50;100.00;65435.88;5022085;28;20014;-67
2022/10/04 11:15:46;;;;;;;;;;;;;;;-145.50;100.00;65435.88;5016224;28;19929;-67
2022/10/04 11:18:47;;;;;;;;;;;;;;;-145.50;100.00;65435.88;5018474;28;19960;-67
2022/10/04 11:21:16;;;;;;;;;;;;;;;-145.50;100.00;65435.88;5011544;28;19925;-67
2022/10/04 11:24:01;;;;;;;;;;;;;;;-145.50;100.00;65435.88;5017194;28;20437;-67
2022/10/04 11:26:46;;;;;;;;;;;;;;;-145.50;100.00;65435.88;5008289;28;20643;-67
2022/10/04 11:29:26;;;;;;;;;;;;;;;-145.50;100.00;65435.88;5018356;28;19925;-66
2022/10/04 11:32:01;;;;;;;;;;;;;;;-145.50;100.00;65435.88;5025067;28;19968;-66
2022/10/04 11:34:58;;;;;;;;;;;;;;;-145.50;100.00;65435.88;5008035;28;20392;-66
2022/10/04 11:37:37;;;;;;;;;;;;;;;-145.50;100.00;65435.88;5020694;28;19929;-67
2022/10/04 11:40:22;;;;;;;;;;;;;;;-145.50;100.00;65435.88;5014581;28;20064;-66
2022/10/04 11:43:08;;;;;;;;;;;;;;;-145.50;100.00;65435.88;5022410;28;19925;-66
2022/10/04 11:45:54;;;;;;;;;;;;;;;-145.50;100.00;65435.88;5008934;28;19975;-66
2022/10/04 11:48:30;;;;;;;;;;;;;;;-145.50;100.00;65435.88;5014230;28;20357;-66
2022/10/04 11:50:56;;;;;;;;;;;;;;;-145.50;100.00;65435.88;5016099;28;20468;-66
2022/10/04 11:53:41;;;;;;;;;;;;;;;-145.50;100.00;65435.88;5020109;28;19928;-66
2022/10/04 11:56:07;;;;;;;;;;;;;;;-145.50;100.00;65435.88;5010359;28;19926;-67
2022/10/04 11:58:52;;;;;;;;;;;;;;;-145.50;100.00;65435.88;5023649;28;19975;-66
2022/10/04 12:01:18;;;;;;;;;;;;;;;-145.50;100.00;65435.88;5014049;28;19971;-66
2022/10/04 12:03:51;;;;;;;;;;;;;;;-145.50;100.00;65435.88;5016293;28;20605;-67
2022/10/04 12:06:23;;;;;;;;;;;;;;;-145.50;100.00;65435.88;5017329;28;20393;-67
2022/10/04 12:08:52;;;;;;;;;;;;;;;-145.50;100.00;65435.88;5019611;28;19921;-67
2022/10/04 12:12:35;;;;;;;;;;;;;;;-145.50;100.00;65435.88;5024477;28;19929;-67
2022/10/04 12:14:25;;;;;;;;;;;;;;;-145.50;100.00;65435.88;5013422;28;19971;-67
2022/10/04 12:17:01;;;;;;;;;;;;;;;-145.50;100.00;65435.88;5017524;28;19921;-67
2022/10/04 12:19:38;;;;;;;;;;;;;;;-145.50;100.00;65435.88;5011517;28;19925;-66
2022/10/04 12:22:10;;;;;;;;;;;;;;;-145.50;100.00;65435.88;5019318;28;20500;-67
2022/10/04 12:24:50;;;;;;;;;;;;;;;-145.50;100.00;65435.88;5003569;28;19979;-67
2022/10/04 12:27:19;;;;;;;;;;;;;;;-145.50;100.00;65435.88;5018498;28;19929;-67
2022/10/04 12:30:04;;;;;;;;;;;;;;;-145.50;100.00;65435.88;5017384;28;20352;-67
2022/10/04 12:32:37;;;;;;;;;;;;;;;-145.50;100.00;65435.88;5019642;28;20019;-67
2022/10/04 12:35:12;;;;;;;;;;;;;;;-145.50;100.00;65435.88;5019906;28;19969;-67
2022/10/04 12:37:57;;;;;;;;;;;;;;;-145.50;100.00;65435.88;5019083;28;19936;-67
2022/10/04 12:40:35;;;;;;;;;;;;;;;-145.50;100.00;65435.88;5020353;28;20324;-68
2022/10/04 12:43:20;;;;;;;;;;;;;;;-145.50;100.00;65435.88;5016156;28;20196;-67
2022/10/04 12:45:55;;;;;;;;;;;;;;;-145.50;100.00;65435.88;5020492;28;19925;-66
2022/10/04 12:48:27;;;;;;;;;;;;;;;-145.50;100.00;65435.88;5019422;28;19960;-66
2022/10/04 12:50:59;;;;;;;;;;;;;;;-145.50;100.00;65435.88;5029139;28;20480;-66
2022/10/04 12:53:35;;;;;;;;;;;;;;;-145.50;100.00;65435.88;5011032;28;20043;-66
2022/10/04 12:56:04;;;;;;;;;;;;;;;-145.50;100.00;65435.88;5023495;28;19925;-66
2022/10/04 12:58:50;;;;;;;;;;;;;;;-145.50;100.00;65435.88;5009339;28;19932;-66
2022/10/04 13:01:25;;;;;;;;;;;;;;;-145.50;100.00;65435.88;5022777;28;19961;-66
2022/10/04 13:03:51;;;;;;;;;;;;;;;-145.50;100.00;65435.88;5022871;28;19953;-65